Terminal Aerodrome Forecast
Issued by NWS

Home | Current Version | Previous Version | Text Only | Print | Product List | Glossary On
Versions: 1 2 3 4 5 6 7 8 9 10 11 12 13 14 15 16 17
000
FTUS46 KLOX 260538
TAFPMD
TAF
KPMD 260538Z 2606/2706 27008KT P6SM SCT150
     FM262100 26015G25KT P6SM SCT150
     FM262300 25018G28KT P6SM BKN150
     FM270200 26015KT P6SM OVC100=

USA.gov is the U.S. government's official web portal to all federal, state and local government web resources and services.